^^
Your Local Weather - Clay, NY Station Historical Data
Daily Summary for February 14, 2018 Units:  English    Metric   Both
« Previous Day
Next Day »
Daily Weekly Monthly Yearly Custom
  High: Low: Average:
Temperature: 48.0 °F 22.5 °F 34.3 °F
Dew Point: 35.0 °F 13.9 °F 27 °F
Humidity: 90% 60% 75%
Wind Speed: 5.0mph 0.0mph 0.8mph
Wind Gust: 11.0mph - -
Wind- - SSW
Pressure: 30.36 in 29.91 in -
Precipitation: 0.00 in    
Historical Graphs
 
 
Tabular Data for February 14, 2018
Time Temperature Dew Point Pressure Wind Wind Speed Wind Gust Humidity Rainfall Rate (Hourly) solar
00:04 22.5 °F 13.9 °F 30.36 in East 1.0 mph 2.0 mph 69% 0.00 in 0 W/m2
00:10 22.6 °F 14.0 °F 30.36 in Calm     69% 0.00 in 0 W/m2
00:16 22.7 °F 14.4 °F 30.35 in Calm     70% 0.00 in 0 W/m2
00:22 22.8 °F 14.5 °F 30.34 in Calm     70% 0.00 in 0 W/m2
00:28 23.0 °F 14.7 °F 30.34 in Calm   2.0 mph 70% 0.00 in 0 W/m2
00:34 23.1 °F 14.4 °F 30.34 in Calm     69% 0.00 in 0 W/m2
00:40 23.2 °F 14.9 °F 30.34 in Calm     70% 0.00 in 0 W/m2
00:46 23.4 °F 15.1 °F 30.34 in Calm     70% 0.00 in 0 W/m2
00:52 23.4 °F 15.4 °F 30.34 in Calm     71% 0.00 in 0 W/m2
00:58 23.4 °F 15.4 °F 30.33 in Calm   1.0 mph 71% 0.00 in 0 W/m2
01:04 23.4 °F 15.7 °F 30.33 in Calm   1.0 mph 72% 0.00 in 0 W/m2
01:10 23.4 °F 15.7 °F 30.33 in Calm     72% 0.00 in 0 W/m2
01:16 23.5 °F 16.1 °F 30.33 in Calm     73% 0.00 in 0 W/m2
01:22 23.6 °F 16.2 °F 30.32 in Calm     73% 0.00 in 0 W/m2
01:28 23.7 °F 16.3 °F 30.32 in Calm     73% 0.00 in 0 W/m2
01:34 23.8 °F 16.7 °F 30.31 in Calm   1.0 mph 74% 0.00 in 0 W/m2
01:40 23.9 °F 16.8 °F 30.31 in Calm     74% 0.00 in 0 W/m2
01:46 24.0 °F 16.9 °F 30.31 in Calm     74% 0.00 in 0 W/m2
01:52 24.2 °F 17.1 °F 30.30 in Calm   1.0 mph 74% 0.00 in 0 W/m2
01:58 24.2 °F 17.4 °F 30.29 in Calm   1.0 mph 75% 0.00 in 0 W/m2
02:04 24.2 °F 17.4 °F 30.29 in Calm   1.0 mph 75% 0.00 in 0 W/m2
02:10 24.6 °F 17.8 °F 30.29 in East 1.0 mph 1.0 mph 75% 0.00 in 0 W/m2
02:16 24.6 °F 17.8 °F 30.28 in Calm   1.0 mph 75% 0.00 in 0 W/m2
02:22 24.6 °F 18.1 °F 30.28 in Calm     76% 0.00 in 0 W/m2
02:28 24.7 °F 18.2 °F 30.28 in Calm     76% 0.00 in 0 W/m2
02:34 24.8 °F 18.3 °F 30.28 in Calm     76% 0.00 in 0 W/m2
02:40 24.9 °F 18.4 °F 30.28 in Calm     76% 0.00 in 0 W/m2
02:46 25.1 °F 18.6 °F 30.28 in Calm     76% 0.00 in 0 W/m2
02:52 25.3 °F 18.8 °F 30.27 in Calm   1.0 mph 76% 0.00 in 0 W/m2
02:58 25.4 °F 18.9 °F 30.26 in Calm   2.0 mph 76% 0.00 in 0 W/m2
03:04 25.6 °F 19.4 °F 30.26 in Calm   2.0 mph 77% 0.00 in 0 W/m2
03:10 25.8 °F 19.6 °F 30.25 in East 1.0 mph 1.0 mph 77% 0.00 in 0 W/m2
03:16 26.0 °F 19.8 °F 30.25 in East 1.0 mph 2.0 mph 77% 0.00 in 0 W/m2
03:22 26.4 °F 20.2 °F 30.25 in NE 2.0 mph 3.0 mph 77% 0.00 in 0 W/m2
03:28 26.6 °F 20.1 °F 30.25 in NE 2.0 mph 3.0 mph 76% 0.00 in 0 W/m2
03:36 26.7 °F 20.5 °F 30.24 in NE 2.0 mph 2.0 mph 77% 0.00 in 0 W/m2
03:42 26.7 °F 20.8 °F 30.24 in NE 1.0 mph 2.0 mph 78% 0.00 in 0 W/m2
03:48 26.9 °F 21.0 °F 30.24 in NE 1.0 mph 2.0 mph 78% 0.00 in 0 W/m2
03:54 26.9 °F 21.0 °F 30.24 in NE 1.0 mph 2.0 mph 78% 0.00 in 0 W/m2
04:00 26.9 °F 21.0 °F 30.23 in NE 1.0 mph 1.0 mph 78% 0.00 in 0 W/m2
04:12 27.2 °F 21.2 °F 30.22 in NE 1.0 mph 1.0 mph 78% 0.00 in 0 W/m2
04:18 27.2 °F 21.2 °F 30.22 in NE 1.0 mph 1.0 mph 78% 0.00 in 0 W/m2
04:30 27.4 °F 21.4 °F 30.22 in ENE 1.0 mph 1.0 mph 78% 0.00 in 0 W/m2
04:36 27.6 °F 21.3 °F 30.22 in ENE 1.0 mph 1.0 mph 77% 0.00 in 0 W/m2
04:42 27.7 °F 21.4 °F 30.22 in Calm     77% 0.00 in 0 W/m2
04:48 27.7 °F 21.4 °F 30.22 in ENE 1.0 mph 1.0 mph 77% 0.00 in 0 W/m2
04:54 27.7 °F 21.7 °F 30.22 in Calm   3.0 mph 78% 0.00 in 0 W/m2
05:00 28.0 °F 21.7 °F 30.22 in ENE 1.0 mph 1.0 mph 77% 0.00 in 0 W/m2
05:06 28.2 °F 21.6 °F 30.21 in ENE 1.0 mph 1.0 mph 76% 0.00 in 0 W/m2
05:12 28.3 °F 22.0 °F 30.22 in Calm     77% 0.00 in 0 W/m2
05:18 28.3 °F 22.0 °F 30.22 in Calm     77% 0.00 in 0 W/m2
05:24 28.3 °F 22.3 °F 30.22 in Calm     78% 0.00 in 0 W/m2
05:30 28.2 °F 22.2 °F 30.22 in Calm     78% 0.00 in 0 W/m2
05:36 28.3 °F 22.3 °F 30.21 in Calm     78% 0.00 in 0 W/m2
05:42 28.4 °F 22.7 °F 30.20 in Calm     79% 0.00 in 0 W/m2
05:48 28.5 °F 22.8 °F 30.20 in Calm     79% 0.00 in 0 W/m2
05:54 28.5 °F 22.8 °F 30.20 in Calm     79% 0.00 in 0 W/m2
06:00 28.5 °F 22.8 °F 30.20 in Calm     79% 0.00 in 0 W/m2
06:06 28.5 °F 22.5 °F 30.20 in Calm     78% 0.00 in 0 W/m2
06:12 28.5 °F 22.8 °F 30.20 in Calm   1.0 mph 79% 0.00 in 0 W/m2
06:18 28.6 °F 22.9 °F 30.20 in Calm   1.0 mph 79% 0.00 in 0 W/m2
06:24 28.6 °F 22.9 °F 30.20 in Calm     79% 0.00 in 0 W/m2
06:30 28.7 °F 23.0 °F 30.20 in Calm     79% 0.00 in 0 W/m2
06:36 28.8 °F 23.1 °F 30.20 in Calm     79% 0.00 in 0 W/m2
06:42 28.9 °F 23.2 °F 30.20 in Calm     79% 0.00 in 0 W/m2
06:48 28.9 °F 23.2 °F 30.19 in Calm   1.0 mph 79% 0.00 in 0 W/m2
06:54 28.9 °F 23.2 °F 30.19 in Calm     79% 0.00 in 0 W/m2
07:00 29.0 °F 23.6 °F 30.19 in Calm     80% 0.00 in 0 W/m2
07:06 29.1 °F 23.4 °F 30.19 in Calm     79% 0.00 in 0 W/m2
07:12 29.2 °F 23.5 °F 30.19 in Calm     79% 0.00 in 0 W/m2
07:18 29.3 °F 23.6 °F 30.19 in Calm     79% 0.00 in 5 W/m2
07:24 29.4 °F 23.7 °F 30.19 in Calm     79% 0.00 in 5 W/m2
07:30 29.5 °F 23.8 °F 30.19 in Calm     79% 0.00 in 9 W/m2
07:36 29.5 °F 23.8 °F 30.19 in Calm     79% 0.00 in 11 W/m2
07:42 29.6 °F 23.9 °F 30.19 in Calm     79% 0.00 in 14 W/m2
07:48 29.7 °F 24.0 °F 30.19 in Calm     79% 0.00 in 11 W/m2
07:54 29.7 °F 24.0 °F 30.19 in Calm     79% 0.00 in 14 W/m2
08:00 29.8 °F 24.1 °F 30.19 in Calm     79% 0.00 in 16 W/m2
08:06 29.9 °F 24.2 °F 30.19 in Calm     79% 0.00 in 16 W/m2
08:12 30.0 °F 24.3 °F 30.19 in Calm     79% 0.00 in 12 W/m2
08:18 30.1 °F 24.4 °F 30.19 in Calm     79% 0.00 in 28 W/m2
08:24 30.3 °F 24.6 °F 30.19 in Calm     79% 0.00 in 32 W/m2
08:30 30.5 °F 24.8 °F 30.20 in Calm     79% 0.00 in 33 W/m2
08:36 30.7 °F 25.0 °F 30.19 in Calm     79% 0.00 in 39 W/m2
08:42 30.9 °F 25.5 °F 30.19 in Calm     80% 0.00 in 46 W/m2
08:48 31.2 °F 25.7 °F 30.19 in Calm     80% 0.00 in 49 W/m2
08:54 31.5 °F 26.0 °F 30.19 in Calm     80% 0.00 in 54 W/m2
09:00 31.7 °F 26.2 °F 30.19 in Calm     80% 0.00 in 60 W/m2
09:06 31.9 °F 26.4 °F 30.19 in Calm     80% 0.00 in 77 W/m2
09:12 32.3 °F 26.5 °F 30.19 in Calm   1.0 mph 79% 0.00 in 91 W/m2
09:18 32.7 °F 26.9 °F 30.19 in Calm   3.0 mph 79% 0.00 in 107 W/m2
09:24 33.1 °F 27.3 °F 30.19 in NNW 1.0 mph 3.0 mph 79% 0.00 in 97 W/m2
09:30 33.5 °F 27.4 °F 30.19 in NNW 1.0 mph 1.0 mph 78% 0.00 in 118 W/m2
09:36 34.0 °F 27.9 °F 30.19 in Calm   1.0 mph 78% 0.00 in 120 W/m2
09:42 34.5 °F 28.0 °F 30.19 in Calm   1.0 mph 77% 0.00 in 118 W/m2
09:48 35.2 °F 28.4 °F 30.18 in Calm   1.0 mph 76% 0.00 in 123 W/m2
09:54 35.5 °F 28.4 °F 30.18 in Calm     75% 0.00 in 128 W/m2
10:00 36.1 °F 28.9 °F 30.18 in Calm     75% 0.00 in 120 W/m2
10:06 36.6 °F 29.1 °F 30.18 in Calm     74% 0.00 in 148 W/m2
10:12 37.1 °F 29.2 °F 30.17 in Calm     73% 0.00 in 186 W/m2
10:18 37.7 °F 30.2 °F 30.17 in Calm   3.0 mph 74% 0.00 in 218 W/m2
10:24 39.2 °F 31.9 °F 30.17 in South 1.0 mph 5.0 mph 75% 0.00 in 216 W/m2
10:30 40.0 °F 32.4 °F 30.17 in SSE 2.0 mph 2.0 mph 74% 0.00 in 206 W/m2
10:36 40.3 °F 32.7 °F 30.16 in SSW 2.0 mph 4.0 mph 74% 0.00 in 218 W/m2
10:42 40.5 °F 32.5 °F 30.15 in SSW 3.0 mph 5.0 mph 73% 0.00 in 241 W/m2
10:48 40.9 °F 32.9 °F 30.15 in South 3.0 mph 5.0 mph 73% 0.00 in 309 W/m2
10:54 41.3 °F 33.0 °F 30.15 in SSW 2.0 mph 3.0 mph 72% 0.00 in 257 W/m2
11:00 41.4 °F 33.0 °F 30.15 in SSW 2.0 mph 5.0 mph 72% 0.00 in 264 W/m2
11:06 41.4 °F 33.0 °F 30.15 in SSW 3.0 mph 5.0 mph 72% 0.00 in 250 W/m2
11:12 41.3 °F 33.0 °F 30.14 in SSE 3.0 mph 7.0 mph 72% 0.00 in 260 W/m2
11:18 41.6 °F 33.6 °F 30.14 in SW 3.0 mph 7.0 mph 73% 0.00 in 290 W/m2
11:24 42.0 °F 33.6 °F 30.14 in SSW 2.0 mph 7.0 mph 72% 0.00 in 294 W/m2
11:30 42.1 °F 33.7 °F 30.14 in SW 3.0 mph 3.0 mph 72% 0.00 in 367 W/m2
11:36 42.6 °F 33.9 °F 30.14 in South 3.0 mph 3.0 mph 71% 0.00 in 301 W/m2
11:42 42.9 °F 34.1 °F 30.12 in SW 4.0 mph 9.0 mph 71% 0.00 in 380 W/m2
11:48 43.6 °F 34.1 °F 30.12 in SW 4.0 mph 9.0 mph 69% 0.00 in 417 W/m2
11:54 43.8 °F 33.9 °F 30.12 in South 4.0 mph 6.0 mph 68% 0.00 in 316 W/m2
12:00 43.6 °F 34.1 °F 30.11 in SW 4.0 mph 5.0 mph 69% 0.00 in 329 W/m2
12:06 44.2 °F 34.3 °F 30.11 in WSW 4.0 mph 5.0 mph 68% 0.00 in 457 W/m2
12:12 44.7 °F 34.4 °F 30.11 in SW 3.0 mph 4.0 mph 67% 0.00 in 768 W/m2
12:18 44.8 °F 34.1 °F 30.11 in WSW 3.0 mph 5.0 mph 66% 0.00 in 283 W/m2
12:24 45.2 °F 34.5 °F 30.10 in WSW 4.0 mph 5.0 mph 66% 0.00 in 345 W/m2
12:30 44.9 °F 34.2 °F 30.10 in South 4.0 mph 4.0 mph 66% 0.00 in 359 W/m2
12:36 46.0 °F 34.9 °F 30.10 in WSW 3.0 mph 4.0 mph 65% 0.00 in 359 W/m2
12:42 45.3 °F 34.2 °F 30.09 in WSW 3.0 mph 8.0 mph 65% 0.00 in 299 W/m2
12:48 44.8 °F 34.1 °F 30.09 in West 5.0 mph 11.0 mph 66% 0.00 in 323 W/m2
12:54 44.5 °F 33.8 °F 30.09 in SW 5.0 mph 10.0 mph 66% 0.00 in 297 W/m2
13:00 45.5 °F 34.4 °F 30.09 in West 4.0 mph 7.0 mph 65% 0.00 in 786 W/m2
13:06 45.9 °F 34.4 °F 30.09 in WSW 3.0 mph 7.0 mph 64% 0.00 in 341 W/m2
13:12 45.3 °F 33.8 °F 30.08 in SW 4.0 mph 4.0 mph 64% 0.00 in 292 W/m2
13:18 45.7 °F 34.2 °F 30.08 in SW 4.0 mph 7.0 mph 64% 0.00 in 292 W/m2
13:24 45.8 °F 34.3 °F 30.07 in West 4.0 mph 5.0 mph 64% 0.00 in 698 W/m2
13:30 46.2 °F 34.3 °F 30.07 in SW 5.0 mph 5.0 mph 63% 0.00 in 591 W/m2
13:36 46.3 °F 34.4 °F 30.07 in WSW 4.0 mph 5.0 mph 63% 0.00 in 462 W/m2
13:42 46.9 °F 34.6 °F 30.07 in WSW 4.0 mph 4.0 mph 62% 0.00 in 661 W/m2
13:48 46.7 °F 34.4 °F 30.07 in WSW 4.0 mph 6.0 mph 62% 0.00 in 573 W/m2
13:54 46.4 °F 34.5 °F 30.07 in West 3.0 mph 4.0 mph 63% 0.00 in 251 W/m2
14:00 46.2 °F 34.3 °F 30.07 in SW 3.0 mph 3.0 mph 63% 0.00 in 236 W/m2
14:06 46.2 °F 34.3 °F 30.07 in SW 2.0 mph 3.0 mph 63% 0.00 in 229 W/m2
14:12 46.1 °F 34.6 °F 30.06 in WSW 2.0 mph 4.0 mph 64% 0.00 in 309 W/m2
14:18 46.4 °F 34.5 °F 30.06 in WSW 2.0 mph 4.0 mph 63% 0.00 in 299 W/m2
14:24 46.6 °F 34.7 °F 30.06 in WSW 3.0 mph 5.0 mph 63% 0.00 in 260 W/m2
14:30 47.5 °F 34.7 °F 30.06 in WSW 2.0 mph 2.0 mph 61% 0.00 in 575 W/m2
14:36 47.4 °F 34.6 °F 30.06 in SW 2.0 mph 5.0 mph 61% 0.00 in 446 W/m2
14:42 47.6 °F 34.8 °F 30.06 in WSW 2.0 mph 6.0 mph 61% 0.00 in 471 W/m2
14:48 48.0 °F 34.8 °F 30.06 in WSW 3.0 mph 6.0 mph 60% 0.00 in 390 W/m2
14:54 47.4 °F 34.6 °F 30.06 in WSW 2.0 mph 3.0 mph 61% 0.00 in 195 W/m2
15:00 46.8 °F 34.5 °F 30.06 in West 2.0 mph 2.0 mph 62% 0.00 in 274 W/m2
15:06 47.1 °F 34.7 °F 30.05 in West 1.0 mph 2.0 mph 62% 0.00 in 367 W/m2
15:12 47.4 °F 35.0 °F 30.05 in West 2.0 mph 4.0 mph 62% 0.00 in 420 W/m2
15:18 47.9 °F 34.7 °F 30.05 in West 2.0 mph 4.0 mph 60% 0.00 in 359 W/m2
15:24 48.0 °F 34.8 °F 30.05 in WSW 2.0 mph 5.0 mph 60% 0.00 in 353 W/m2
15:30 47.7 °F 34.9 °F 30.04 in South 3.0 mph 4.0 mph 61% 0.00 in 376 W/m2
15:36 47.6 °F 34.8 °F 30.04 in SW 3.0 mph 5.0 mph 61% 0.00 in 323 W/m2
15:42 47.7 °F 34.9 °F 30.04 in SW 2.0 mph 3.0 mph 61% 0.00 in 299 W/m2
15:48 47.6 °F 34.8 °F 30.04 in SW 3.0 mph 3.0 mph 61% 0.00 in 272 W/m2
15:54 47.5 °F 34.7 °F 30.04 in WSW 2.0 mph 3.0 mph 61% 0.00 in 255 W/m2
16:00 47.5 °F 34.7 °F 30.04 in SW 2.0 mph 2.0 mph 61% 0.00 in 234 W/m2
16:06 47.7 °F 34.9 °F 30.03 in SW 1.0 mph 2.0 mph 61% 0.00 in 213 W/m2
16:12 47.4 °F 34.6 °F 30.03 in SW 1.0 mph 3.0 mph 61% 0.00 in 183 W/m2
16:18 47.2 °F 34.8 °F 30.03 in WSW 1.0 mph 3.0 mph 62% 0.00 in 62 W/m2
16:24 47.0 °F 34.6 °F 30.03 in WSW 1.0 mph 1.0 mph 62% 0.00 in 56 W/m2
16:30 46.8 °F 34.5 °F 30.02 in WSW 1.0 mph 1.0 mph 62% 0.00 in 49 W/m2
16:36 46.7 °F 34.4 °F 30.02 in WSW 1.0 mph 1.0 mph 62% 0.00 in 46 W/m2
16:42 46.6 °F 34.7 °F 30.02 in Calm     63% 0.00 in 42 W/m2
16:48 46.5 °F 34.6 °F 30.02 in Calm   1.0 mph 63% 0.00 in 37 W/m2
16:54 46.4 °F 34.5 °F 30.01 in Calm     63% 0.00 in 33 W/m2
17:00 46.2 °F 34.3 °F 30.01 in Calm     63% 0.00 in 30 W/m2
17:06 46.0 °F 34.5 °F 30.01 in Calm     64% 0.00 in 25 W/m2
17:12 45.7 °F 34.2 °F 30.01 in Calm     64% 0.00 in 21 W/m2
17:18 45.3 °F 33.8 °F 30.01 in Calm     64% 0.00 in 16 W/m2
17:24 43.9 °F 32.5 °F 30.01 in Calm     64% 0.00 in 11 W/m2
17:30 42.5 °F 32.3 °F 30.01 in Calm     67% 0.00 in 7 W/m2
17:36 41.8 °F 32.4 °F 30.00 in Calm     69% 0.00 in 5 W/m2
17:42 41.0 °F 32.0 °F 30.00 in Calm     70% 0.00 in 0 W/m2
17:48 40.5 °F 31.8 °F 30.00 in Calm     71% 0.00 in 0 W/m2
17:54 40.0 °F 31.4 °F 30.01 in Calm     71% 0.00 in 0 W/m2
18:00 39.6 °F 31.3 °F 30.01 in Calm     72% 0.00 in 0 W/m2
18:06 39.0 °F 31.1 °F 30.01 in Calm   1.0 mph 73% 0.00 in 0 W/m2
18:12 38.3 °F 30.4 °F 30.01 in Calm     73% 0.00 in 0 W/m2
18:18 37.7 °F 30.2 °F 30.01 in Calm     74% 0.00 in 0 W/m2
18:24 37.2 °F 30.0 °F 30.01 in Calm     75% 0.00 in 0 W/m2
18:30 36.8 °F 29.9 °F 30.01 in Calm     76% 0.00 in 0 W/m2
18:36 36.3 °F 29.8 °F 30.01 in Calm     77% 0.00 in 0 W/m2
18:42 35.9 °F 29.7 °F 30.01 in Calm     78% 0.00 in 0 W/m2
18:48 35.6 °F 29.7 °F 30.01 in Calm     79% 0.00 in 0 W/m2
18:54 35.3 °F 29.4 °F 30.01 in Calm   1.0 mph 79% 0.00 in 0 W/m2
19:00 35.0 °F 29.5 °F 30.00 in Calm     80% 0.00 in 0 W/m2
19:06 34.9 °F 29.7 °F 30.00 in Calm     81% 0.00 in 0 W/m2
19:12 34.4 °F 28.9 °F 30.00 in Calm     80% 0.00 in 0 W/m2
19:18 33.9 °F 28.7 °F 30.00 in Calm     81% 0.00 in 0 W/m2
19:24 33.7 °F 28.8 °F 30.00 in Calm     82% 0.00 in 0 W/m2
19:30 33.4 °F 28.5 °F 30.00 in Calm     82% 0.00 in 0 W/m2
19:36 33.4 °F 28.8 °F 30.00 in Calm     83% 0.00 in 0 W/m2
19:42 33.2 °F 28.6 °F 29.99 in Calm     83% 0.00 in 0 W/m2
19:48 33.0 °F 28.4 °F 29.99 in Calm     83% 0.00 in 0 W/m2
19:54 32.7 °F 28.4 °F 29.99 in Calm     84% 0.00 in 0 W/m2
20:00 32.5 °F 28.2 °F 29.99 in Calm     84% 0.00 in 0 W/m2
20:06 32.2 °F 27.9 °F 29.99 in Calm     84% 0.00 in 0 W/m2
20:12 32.0 °F 27.7 °F 29.99 in Calm     84% 0.00 in 0 W/m2
20:18 31.8 °F 27.5 °F 29.99 in Calm     84% 0.00 in 0 W/m2
20:24 31.6 °F 27.6 °F 29.99 in Calm     85% 0.00 in 0 W/m2
20:30 31.4 °F 27.4 °F 29.99 in Calm     85% 0.00 in 0 W/m2
20:36 31.3 °F 27.3 °F 29.99 in Calm     85% 0.00 in 0 W/m2
20:42 31.0 °F 27.0 °F 29.99 in Calm     85% 0.00 in 0 W/m2
20:48 30.7 °F 26.7 °F 29.98 in Calm     85% 0.00 in 0 W/m2
20:54 30.4 °F 26.7 °F 29.98 in Calm     86% 0.00 in 0 W/m2
21:00 30.2 °F 26.5 °F 29.98 in Calm     86% 0.00 in 0 W/m2
21:06 30.0 °F 26.3 °F 29.98 in Calm     86% 0.00 in 0 W/m2
21:12 29.9 °F 26.2 °F 29.98 in Calm     86% 0.00 in 0 W/m2
21:18 29.7 °F 26.3 °F 29.98 in Calm     87% 0.00 in 0 W/m2
21:24 29.6 °F 26.2 °F 29.98 in Calm     87% 0.00 in 0 W/m2
21:30 29.5 °F 26.1 °F 29.97 in Calm     87% 0.00 in 0 W/m2
21:36 29.7 °F 26.6 °F 29.96 in Calm   2.0 mph 88% 0.00 in 0 W/m2
21:42 29.7 °F 26.6 °F 29.96 in Calm     88% 0.00 in 0 W/m2
21:48 29.6 °F 26.5 °F 29.96 in Calm     88% 0.00 in 0 W/m2
21:54 29.4 °F 26.3 °F 29.95 in Calm     88% 0.00 in 0 W/m2
22:00 29.6 °F 26.5 °F 29.95 in Calm     88% 0.00 in 0 W/m2
22:06 29.9 °F 27.1 °F 29.95 in Calm     89% 0.00 in 0 W/m2
22:12 29.6 °F 26.8 °F 29.95 in Calm     89% 0.00 in 0 W/m2
22:18 29.5 °F 26.7 °F 29.95 in Calm     89% 0.00 in 0 W/m2
22:24 29.3 °F 26.5 °F 29.95 in Calm     89% 0.00 in 0 W/m2
22:30 29.2 °F 26.4 °F 29.95 in Calm     89% 0.00 in 0 W/m2
22:36 28.9 °F 26.1 °F 29.94 in Calm     89% 0.00 in 0 W/m2
22:42 28.7 °F 25.9 °F 29.94 in Calm     89% 0.00 in 0 W/m2
22:48 28.6 °F 25.8 °F 29.93 in Calm     89% 0.00 in 0 W/m2
22:54 28.5 °F 25.7 °F 29.93 in Calm     89% 0.00 in 0 W/m2
23:00 28.8 °F 26.2 °F 29.93 in Calm     90% 0.00 in 0 W/m2
23:06 28.7 °F 25.9 °F 29.93 in Calm     89% 0.00 in 0 W/m2
23:12 28.2 °F 25.6 °F 29.93 in Calm     90% 0.00 in 0 W/m2
23:18 27.8 °F 25.0 °F 29.93 in Calm     89% 0.00 in 0 W/m2
23:24 27.7 °F 25.2 °F 29.93 in Calm     90% 0.00 in 0 W/m2
23:30 27.6 °F 25.1 °F 29.92 in Calm     90% 0.00 in 0 W/m2
23:36 27.5 °F 25.0 °F 29.92 in Calm     90% 0.00 in 0 W/m2
23:42 27.6 °F 25.1 °F 29.92 in Calm     90% 0.00 in 0 W/m2
23:48 27.6 °F 25.1 °F 29.91 in Calm     90% 0.00 in 0 W/m2
23:54 27.7 °F 25.2 °F 29.91 in Calm     90% 0.00 in 0 W/m2
Country Meadow, Clay, NY, USA
Compliments of Weather Underground - 2 mb